sensor_id;sensor_type;location;lat;lon;timestamp;pressure;altitude;pressure_sealevel;temperature;humidity
32735;BME280;19112;51.076;3.706;2023-04-02T00:01:22;101072.34;;;10.06;100.00
32735;BME280;19112;51.076;3.706;2023-04-02T00:04:10;101024.88;;;9.76;100.00
32735;BME280;19112;51.076;3.706;2023-04-02T00:07:28;101078.31;;;10.02;100.00
32735;BME280;19112;51.076;3.706;2023-04-02T00:10:23;100896.22;;;9.04;100.00
32735;BME280;19112;51.076;3.706;2023-04-02T00:15:47;100971.19;;;9.44;100.00
32735;BME280;19112;51.076;3.706;2023-04-02T00:18:20;100825.97;;;8.49;100.00
32735;BME280;19112;51.076;3.706;2023-04-02T00:21:31;101044.19;;;9.57;100.00
32735;BME280;19112;51.076;3.706;2023-04-02T00:24:16;101062.41;;;9.75;100.00
32735;BME280;19112;51.076;3.706;2023-04-02T00:26:46;101045.66;;;9.71;100.00
32735;BME280;19112;51.076;3.706;2023-04-02T00:29:14;101024.06;;;9.56;100.00
32735;BME280;19112;51.076;3.706;2023-04-02T00:31:48;100970.31;;;9.23;100.00
32735;BME280;19112;51.076;3.706;2023-04-02T00:34:32;101118.44;;;10.00;100.00
32735;BME280;19112;51.076;3.706;2023-04-02T00:37:31;101027.47;;;9.54;100.00
32735;BME280;19112;51.076;3.706;2023-04-02T00:42:53;101126.91;;;9.92;100.00
32735;BME280;19112;51.076;3.706;2023-04-02T00:45:25;100894.22;;;8.55;100.00
32735;BME280;19112;51.076;3.706;2023-04-02T00:48:43;101135.19;;;10.03;100.00
32735;BME280;19112;51.076;3.706;2023-04-02T00:51:43;101083.00;;;9.66;100.00
32735;BME280;19112;51.076;3.706;2023-04-02T00:54:12;101142.38;;;9.86;100.00
32735;BME280;19112;51.076;3.706;2023-04-02T00:56:54;100998.56;;;9.09;100.00
32735;BME280;19112;51.076;3.706;2023-04-02T01:05:34;100948.09;;;8.71;100.00
32735;BME280;19112;51.076;3.706;2023-04-02T01:17:46;101176.06;;;9.98;100.00
32735;BME280;19112;51.076;3.706;2023-04-02T01:21:15;101178.47;;;9.92;100.00
32735;BME280;19112;51.076;3.706;2023-04-02T01:24:28;101187.72;;;9.84;100.00
32735;BME280;19112;51.076;3.706;2023-04-02T01:27:27;101200.97;;;9.87;100.00
32735;BME280;19112;51.076;3.706;2023-04-02T01:30:02;101144.19;;;9.45;100.00
32735;BME280;19112;51.076;3.706;2023-04-02T01:32:30;101161.38;;;9.60;100.00
32735;BME280;19112;51.076;3.706;2023-04-02T01:35:22;101027.44;;;8.89;100.00
32735;BME280;19112;51.076;3.706;2023-04-02T01:38:16;101128.91;;;9.35;100.00
32735;BME280;19112;51.076;3.706;2023-04-02T01:41:02;101206.06;;;9.84;100.00
32735;BME280;19112;51.076;3.706;2023-04-02T01:44:11;101121.22;;;9.19;100.00
32735;BME280;19112;51.076;3.706;2023-04-02T01:47:00;101097.25;;;9.10;100.00
32735;BME280;19112;51.076;3.706;2023-04-02T01:52:53;101234.28;;;9.89;100.00
32735;BME280;19112;51.076;3.706;2023-04-02T01:58:04;101175.44;;;9.41;100.00
32735;BME280;19112;51.076;3.706;2023-04-02T02:00:41;100978.41;;;8.26;100.00
32735;BME280;19112;51.076;3.706;2023-04-02T02:03:15;101219.50;;;9.50;100.00
32735;BME280;19112;51.076;3.706;2023-04-02T02:05:42;101206.50;;;9.53;100.00
32735;BME280;19112;51.076;3.706;2023-04-02T02:11:13;101152.88;;;9.04;100.00
32735;BME280;19112;51.076;3.706;2023-04-02T02:14:00;101226.19;;;9.43;100.00
32735;BME280;19112;51.076;3.706;2023-04-02T02:16:44;101175.19;;;9.15;100.00
32735;BME280;19112;51.076;3.706;2023-04-02T02:19:37;101057.72;;;8.44;100.00
32735;BME280;19112;51.076;3.706;2023-04-02T02:22:33;101237.78;;;9.29;100.00
32735;BME280;19112;51.076;3.706;2023-04-02T02:25:20;101225.50;;;9.28;100.00
32735;BME280;19112;51.076;3.706;2023-04-02T02:28:15;101246.38;;;9.45;100.00
32735;BME280;19112;51.076;3.706;2023-04-02T02:30:46;101257.63;;;9.43;100.00
32735;BME280;19112;51.076;3.706;2023-04-02T02:33:30;101295.19;;;9.63;100.00
32735;BME280;19112;51.076;3.706;2023-04-02T02:42:17;101120.16;;;8.36;100.00
32735;BME280;19112;51.076;3.706;2023-04-02T02:44:51;101307.22;;;9.38;100.00
32735;BME280;19112;51.076;3.706;2023-04-02T02:47:33;101240.06;;;9.02;100.00
32735;BME280;19112;51.076;3.706;2023-04-02T02:50:22;101128.13;;;8.39;100.00
32735;BME280;19112;51.076;3.706;2023-04-02T02:52:58;101034.97;;;7.86;100.00
32735;BME280;19112;51.076;3.706;2023-04-02T02:55:32;101324.84;;;9.42;100.00
32735;BME280;19112;51.076;3.706;2023-04-02T02:58:10;100990.69;;;7.52;100.00
32735;BME280;19112;51.076;3.706;2023-04-02T03:00:43;101205.16;;;8.83;100.00
32735;BME280;19112;51.076;3.706;2023-04-02T03:03:32;101277.69;;;9.23;100.00
32735;BME280;19112;51.076;3.706;2023-04-02T03:06:48;101346.66;;;9.61;100.00
32735;BME280;19112;51.076;3.706;2023-04-02T03:13:48;101310.16;;;9.27;99.94
32735;BME280;19112;51.076;3.706;2023-04-02T03:16:22;101274.84;;;8.99;100.00
32735;BME280;19112;51.076;3.706;2023-04-02T03:19:24;101375.06;;;9.52;100.00
32735;BME280;19112;51.076;3.706;2023-04-02T03:22:13;101374.56;;;9.41;100.00
32735;BME280;19112;51.076;3.706;2023-04-02T03:25:20;101230.88;;;8.55;100.00
32735;BME280;19112;51.076;3.706;2023-04-02T03:28:10;101307.94;;;8.97;100.00
32735;BME280;19112;51.076;3.706;2023-04-02T03:31:03;101355.84;;;9.14;100.00
32735;BME280;19112;51.076;3.706;2023-04-02T03:33:44;100999.13;;;7.11;100.00
32735;BME280;19112;51.076;3.706;2023-04-02T03:37:04;101397.97;;;9.18;100.00
32735;BME280;19112;51.076;3.706;2023-04-02T03:40:16;101416.38;;;9.20;100.00
32735;BME280;19112;51.076;3.706;2023-04-02T03:43:23;101372.72;;;9.01;100.00
32735;BME280;19112;51.076;3.706;2023-04-02T03:46:38;101413.03;;;9.23;100.00
32735;BME280;19112;51.076;3.706;2023-04-02T03:52:29;100933.00;;;6.24;99.51
32735;BME280;19112;51.076;3.706;2023-04-02T03:54:59;101215.97;;;7.82;100.00
32735;BME280;19112;51.076;3.706;2023-04-02T04:01:23;101443.50;;;9.03;100.00
32735;BME280;19112;51.076;3.706;2023-04-02T04:04:00;101173.06;;;7.43;99.98
32735;BME280;19112;51.076;3.706;2023-04-02T04:06:42;101451.94;;;9.15;100.00
32735;BME280;19112;51.076;3.706;2023-04-02T04:09:26;101192.38;;;7.63;99.82
32735;BME280;19112;51.076;3.706;2023-04-02T04:12:50;101466.16;;;9.02;98.81
32735;BME280;19112;51.076;3.706;2023-04-02T04:18:45;101405.16;;;8.51;99.06
32735;BME280;19112;51.076;3.706;2023-04-02T04:21:28;101261.94;;;7.61;98.96
32735;BME280;19112;51.076;3.706;2023-04-02T04:24:23;101272.00;;;7.53;99.21
32735;BME280;19112;51.076;3.706;2023-04-02T04:31:17;101408.47;;;8.47;99.13
32735;BME280;19112;51.076;3.706;2023-04-02T04:34:20;101505.16;;;8.96;99.33
32735;BME280;19112;51.076;3.706;2023-04-02T04:37:00;101466.56;;;8.58;98.78
32735;BME280;19112;51.076;3.706;2023-04-02T04:40:23;101480.09;;;8.67;99.25
32735;BME280;19112;51.076;3.706;2023-04-02T04:46:39;101539.53;;;8.86;98.84
32735;BME280;19112;51.076;3.706;2023-04-02T04:49:31;101533.34;;;8.68;98.21
32735;BME280;19112;51.076;3.706;2023-04-02T04:52:20;101483.66;;;8.51;98.83
32735;BME280;19112;51.076;3.706;2023-04-02T04:55:01;101489.72;;;8.50;98.40
32735;BME280;19112;51.076;3.706;2023-04-02T04:57:58;101304.31;;;7.39;98.24
32735;BME280;19112;51.076;3.706;2023-04-02T05:06:44;101559.44;;;8.82;98.71
32735;BME280;19112;51.076;3.706;2023-04-02T05:13:00;101376.09;;;7.62;97.56
32735;BME280;19112;51.076;3.706;2023-04-02T05:22:51;101560.28;;;8.49;97.93
32735;BME280;19112;51.076;3.706;2023-04-02T05:25:26;101392.09;;;7.68;98.32
32735;BME280;19112;51.076;3.706;2023-04-02T05:28:16;101569.78;;;8.63;97.58
32735;BME280;19112;51.076;3.706;2023-04-02T05:31:26;101501.16;;;8.20;97.18
32735;BME280;19112;51.076;3.706;2023-04-02T05:34:41;101630.13;;;8.82;97.63
32735;BME280;19112;51.076;3.706;2023-04-02T05:37:28;101618.09;;;8.70;97.64
32735;BME280;19112;51.076;3.706;2023-04-02T05:40:14;101553.06;;;8.28;97.18
32735;BME280;19112;51.076;3.706;2023-04-02T05:42:48;101441.56;;;7.65;97.32
32735;BME280;19112;51.076;3.706;2023-04-02T05:45:38;101645.44;;;8.58;96.84
32735;BME280;19112;51.076;3.706;2023-04-02T05:48:26;101558.25;;;7.96;96.81
32735;BME280;19112;51.076;3.706;2023-04-02T05:50:55;101412.41;;;7.10;96.67
32735;BME280;19112;51.076;3.706;2023-04-02T05:53:39;101548.19;;;7.87;96.90
32735;BME280;19112;51.076;3.706;2023-04-02T05:56:24;101608.59;;;8.08;97.01
32735;BME280;19112;51.076;3.706;2023-04-02T05:59:18;101670.97;;;8.31;97.33
32735;BME280;19112;51.076;3.706;2023-04-02T06:07:40;101653.41;;;8.14;96.46
32735;BME280;19112;51.076;3.706;2023-04-02T06:12:56;101692.59;;;8.29;97.42
32735;BME280;19112;51.076;3.706;2023-04-02T06:15:26;101712.44;;;8.40;96.99
32735;BME280;19112;51.076;3.706;2023-04-02T06:18:16;101702.34;;;8.31;96.41
32735;BME280;19112;51.076;3.706;2023-04-02T06:20:47;101577.66;;;7.68;96.66
32735;BME280;19112;51.076;3.706;2023-04-02T06:23:22;101530.78;;;7.25;96.45
32735;BME280;19112;51.076;3.706;2023-04-02T06:28:55;101453.31;;;6.95;96.84
32735;BME280;19112;51.076;3.706;2023-04-02T06:34:21;101465.34;;;7.07;96.66
32735;BME280;19112;51.076;3.706;2023-04-02T06:36:56;101654.13;;;7.80;95.79
32735;BME280;19112;51.076;3.706;2023-04-02T06:39:25;101447.94;;;6.62;95.19
32735;BME280;19112;51.076;3.706;2023-04-02T06:45:19;101629.09;;;7.54;95.76
32735;BME280;19112;51.076;3.706;2023-04-02T06:47:56;101686.38;;;7.81;96.28
32735;BME280;19112;51.076;3.706;2023-04-02T06:50:32;101642.16;;;7.69;96.53
32735;BME280;19112;51.076;3.706;2023-04-02T06:53:26;101510.47;;;6.75;95.13
32735;BME280;19112;51.076;3.706;2023-04-02T06:59:07;101681.28;;;7.68;95.81
32735;BME280;19112;51.076;3.706;2023-04-02T07:02:35;101547.28;;;6.95;95.42
32735;BME280;19112;51.076;3.706;2023-04-02T07:05:07;101734.41;;;7.98;95.35
32735;BME280;19112;51.076;3.706;2023-04-02T07:07:40;101718.50;;;7.78;94.57
32735;BME280;19112;51.076;3.706;2023-04-02T07:10:12;101716.59;;;7.61;95.26
32735;BME280;19112;51.076;3.706;2023-04-02T07:12:38;101637.94;;;7.12;94.71
32735;BME280;19112;51.076;3.706;2023-04-02T07:15:04;101802.75;;;8.04;94.76
32735;BME280;19112;51.076;3.706;2023-04-02T07:17:35;101464.06;;;6.12;95.04
32735;BME280;19112;51.076;3.706;2023-04-02T07:20:02;101680.00;;;7.31;94.28
32735;BME280;19112;51.076;3.706;2023-04-02T07:22:28;101848.28;;;7.93;94.32
32735;BME280;19112;51.076;3.706;2023-04-02T07:24:57;101637.28;;;7.01;95.21
32735;BME280;19112;51.076;3.706;2023-04-02T07:27:23;101586.94;;;6.74;94.09
32735;BME280;19112;51.076;3.706;2023-04-02T07:29:50;101705.69;;;7.53;95.46
32735;BME280;19112;51.076;3.706;2023-04-02T07:32:15;101545.53;;;6.51;94.65
32735;BME280;19112;51.076;3.706;2023-04-02T07:34:43;101605.22;;;6.74;94.60
32735;BME280;19112;51.076;3.706;2023-04-02T07:37:13;101589.81;;;6.64;94.52
32735;BME280;19112;51.076;3.706;2023-04-02T07:39:39;101822.41;;;7.82;94.55
32735;BME280;19112;51.076;3.706;2023-04-02T07:42:19;101778.13;;;7.71;94.97
32735;BME280;19112;51.076;3.706;2023-04-02T07:44:47;101434.66;;;5.59;94.00
32735;BME280;19112;51.076;3.706;2023-04-02T07:47:12;101878.44;;;8.01;94.12
32735;BME280;19112;51.076;3.706;2023-04-02T07:49:39;101874.72;;;7.97;94.93
32735;BME280;19112;51.076;3.706;2023-04-02T07:52:05;101822.22;;;7.79;94.24
32735;BME280;19112;51.076;3.706;2023-04-02T07:54:36;101825.56;;;7.77;94.19
32735;BME280;19112;51.076;3.706;2023-04-02T07:57:03;101441.34;;;5.68;93.76
32735;BME280;19112;51.076;3.706;2023-04-02T07:59:29;101724.31;;;7.30;93.67
32735;BME280;19112;51.076;3.706;2023-04-02T08:01:55;101711.06;;;7.27;93.67
32735;BME280;19112;51.076;3.706;2023-04-02T08:04:25;101897.31;;;8.39;93.67
32735;BME280;19112;51.076;3.706;2023-04-02T08:06:51;101454.72;;;5.88;92.45
32735;BME280;19112;51.076;3.706;2023-04-02T08:09:20;101762.97;;;7.50;91.88
32735;BME280;19112;51.076;3.706;2023-04-02T08:11:52;101909.56;;;8.26;92.37
32735;BME280;19112;51.076;3.706;2023-04-02T08:14:21;101905.16;;;8.39;92.89
32735;BME280;19112;51.076;3.706;2023-04-02T08:16:52;101914.59;;;8.23;91.55
32735;BME280;19112;51.076;3.706;2023-04-02T08:19:19;101630.41;;;6.74;92.47
32735;BME280;19112;51.076;3.706;2023-04-02T08:21:46;101412.56;;;5.52;92.31
32735;BME280;19112;51.076;3.706;2023-04-02T08:24:19;101931.78;;;8.62;92.64
32735;BME280;19112;51.076;3.706;2023-04-02T08:26:47;101604.28;;;6.59;90.69
32735;BME280;19112;51.076;3.706;2023-04-02T08:29:16;101934.69;;;8.37;91.37
32735;BME280;19112;51.076;3.706;2023-04-02T08:31:42;101856.78;;;7.88;90.88
32735;BME280;19112;51.076;3.706;2023-04-02T08:34:08;101634.63;;;6.44;91.40
32735;BME280;19112;51.076;3.706;2023-04-02T08:36:40;101947.09;;;8.26;91.88
32735;BME280;19112;51.076;3.706;2023-04-02T08:39:10;101756.97;;;7.23;91.35
32735;BME280;19112;51.076;3.706;2023-04-02T08:41:46;101944.91;;;8.34;91.10
32735;BME280;19112;51.076;3.706;2023-04-02T08:44:58;101928.25;;;8.32;91.76
32735;BME280;19112;51.076;3.706;2023-04-02T08:47:57;101976.50;;;8.22;90.05
32735;BME280;19112;51.076;3.706;2023-04-02T08:50:33;101851.63;;;7.47;90.91
32735;BME280;19112;51.076;3.706;2023-04-02T08:53:09;101952.34;;;7.98;91.04
32735;BME280;19112;51.076;3.706;2023-04-02T08:56:22;101801.81;;;7.16;90.92
32735;BME280;19112;51.076;3.706;2023-04-02T08:59:01;101996.41;;;8.20;91.02
32735;BME280;19112;51.076;3.706;2023-04-02T09:04:45;101985.81;;;8.04;90.42
32735;BME280;19112;51.076;3.706;2023-04-02T09:07:16;101968.63;;;7.79;90.67
32735;BME280;19112;51.076;3.706;2023-04-02T09:09:42;101527.25;;;5.40;89.93
32735;BME280;19112;51.076;3.706;2023-04-02T09:12:29;101963.81;;;8.00;90.21
32735;BME280;19112;51.076;3.706;2023-04-02T09:17:44;102031.34;;;8.49;89.69
32735;BME280;19112;51.076;3.706;2023-04-02T09:20:22;102031.94;;;8.45;88.63
32735;BME280;19112;51.076;3.706;2023-04-02T09:22:50;102002.44;;;8.19;88.51
32735;BME280;19112;51.076;3.706;2023-04-02T09:25:24;101951.88;;;7.91;87.88
32735;BME280;19112;51.076;3.706;2023-04-02T09:28:02;102055.50;;;8.45;88.76
32735;BME280;19112;51.076;3.706;2023-04-02T09:30:53;101985.69;;;8.16;88.09
32735;BME280;19112;51.076;3.706;2023-04-02T09:33:51;101750.50;;;6.89;87.84
32735;BME280;19112;51.076;3.706;2023-04-02T09:36:38;101870.63;;;7.45;87.54
32735;BME280;19112;51.076;3.706;2023-04-02T09:39:23;102056.53;;;8.33;87.15
32735;BME280;19112;51.076;3.706;2023-04-02T09:41:57;101808.75;;;6.74;86.95
32735;BME280;19112;51.076;3.706;2023-04-02T09:44:27;101941.00;;;7.42;87.20
32735;BME280;19112;51.076;3.706;2023-04-02T09:47:22;102078.94;;;8.15;86.73
32735;BME280;19112;51.076;3.706;2023-04-02T09:49:50;101874.78;;;7.00;86.48
32735;BME280;19112;51.076;3.706;2023-04-02T09:52:30;102093.19;;;8.20;86.35
32735;BME280;19112;51.076;3.706;2023-04-02T09:55:30;102057.06;;;7.86;85.96
32735;BME280;19112;51.076;3.706;2023-04-02T09:58:19;101943.59;;;7.28;86.24
32735;BME280;19112;51.076;3.706;2023-04-02T10:00:53;101909.59;;;7.00;85.99
32735;BME280;19112;51.076;3.706;2023-04-02T10:03:34;102104.13;;;8.00;84.71
32735;BME280;19112;51.076;3.706;2023-04-02T10:06:13;102047.16;;;7.54;84.64
32735;BME280;19112;51.076;3.706;2023-04-02T10:08:43;102121.91;;;8.05;84.66
32735;BME280;19112;51.076;3.706;2023-04-02T10:11:30;101861.53;;;6.44;84.51
32735;BME280;19112;51.076;3.706;2023-04-02T10:17:11;102080.00;;;7.91;83.70
32735;BME280;19112;51.076;3.706;2023-04-02T10:19:55;102124.16;;;8.40;84.53
32735;BME280;19112;51.076;3.706;2023-04-02T10:22:31;101842.69;;;6.35;81.91
32735;BME280;19112;51.076;3.706;2023-04-02T10:24:58;101951.44;;;7.28;83.58
32735;BME280;19112;51.076;3.706;2023-04-02T10:27:40;102139.09;;;8.56;82.53
32735;BME280;19112;51.076;3.706;2023-04-02T10:30:36;102142.91;;;8.61;81.13
32735;BME280;19112;51.076;3.706;2023-04-02T10:33:28;102151.78;;;8.78;81.30
32735;BME280;19112;51.076;3.706;2023-04-02T10:36:48;102154.94;;;9.01;82.06
32735;BME280;19112;51.076;3.706;2023-04-02T10:39:44;101958.31;;;7.68;79.95
32735;BME280;19112;51.076;3.706;2023-04-02T10:42:26;102154.41;;;8.78;79.27
32735;BME280;19112;51.076;3.706;2023-04-02T10:45:43;102128.75;;;8.58;79.26
32735;BME280;19112;51.076;3.706;2023-04-02T10:51:44;102146.19;;;8.72;80.16
32735;BME280;19112;51.076;3.706;2023-04-02T10:55:04;102177.00;;;9.49;80.86
32735;BME280;19112;51.076;3.706;2023-04-02T10:57:42;102019.69;;;8.44;77.66
32735;BME280;19112;51.076;3.706;2023-04-02T11:00:41;102195.25;;;9.32;77.73
32735;BME280;19112;51.076;3.706;2023-04-02T11:03:39;102119.59;;;9.09;78.99
32735;BME280;19112;51.076;3.706;2023-04-02T11:06:25;101994.31;;;8.14;77.74
32735;BME280;19112;51.076;3.706;2023-04-02T11:09:16;102164.59;;;9.02;78.17
32735;BME280;19112;51.076;3.706;2023-04-02T11:12:17;102191.56;;;9.29;78.42
32735;BME280;19112;51.076;3.706;2023-04-02T11:14:51;102088.53;;;8.43;77.26
32735;BME280;19112;51.076;3.706;2023-04-02T11:17:20;102144.59;;;8.89;79.08
32735;BME280;19112;51.076;3.706;2023-04-02T11:20:42;102203.47;;;9.24;77.83
32735;BME280;19112;51.076;3.706;2023-04-02T11:23:20;101996.00;;;7.99;78.50
32735;BME280;19112;51.076;3.706;2023-04-02T11:25:48;102217.72;;;9.14;78.21
32735;BME280;19112;51.076;3.706;2023-04-02T11:28:33;102057.00;;;8.13;77.30
32735;BME280;19112;51.076;3.706;2023-04-02T11:31:02;102218.44;;;9.26;78.14
32735;BME280;19112;51.076;3.706;2023-04-02T11:33:37;102230.06;;;9.44;78.24
32735;BME280;19112;51.076;3.706;2023-04-02T11:39:54;102134.97;;;8.60;75.82
32735;BME280;19112;51.076;3.706;2023-04-02T11:42:35;102175.22;;;8.90;77.75
32735;BME280;19112;51.076;3.706;2023-04-02T11:50:44;102227.16;;;9.40;75.83
32735;BME280;19112;51.076;3.706;2023-04-02T11:53:28;102143.31;;;8.82;76.13
32735;BME280;19112;51.076;3.706;2023-04-02T11:56:17;102076.88;;;8.24;76.25
32735;BME280;19112;51.076;3.706;2023-04-02T12:02:13;102267.75;;;9.04;78.06
32735;BME280;19112;51.076;3.706;2023-04-02T12:05:32;102065.88;;;8.02;77.30
32735;BME280;19112;51.076;3.706;2023-04-02T12:11:57;102115.91;;;8.90;78.33
32735;BME280;19112;51.076;3.706;2023-04-02T12:15:41;102277.53;;;9.79;75.78
32735;BME280;19112;51.076;3.706;2023-04-02T12:18:58;102277.00;;;9.84;75.99
32735;BME280;19112;51.076;3.706;2023-04-02T12:22:29;102118.03;;;8.83;74.84
32735;BME280;19112;51.076;3.706;2023-04-02T12:25:54;102249.41;;;9.47;74.84
32735;BME280;19112;51.076;3.706;2023-04-02T12:28:39;102223.63;;;9.39;76.15
32735;BME280;19112;51.076;3.706;2023-04-02T12:34:44;102298.91;;;9.42;75.11
32735;BME280;19112;51.076;3.706;2023-04-02T12:37:24;102210.41;;;8.80;74.55
32735;BME280;19112;51.076;3.706;2023-04-02T12:40:12;102091.22;;;8.16;75.97
32735;BME280;19112;51.076;3.706;2023-04-02T12:42:41;102228.81;;;8.95;75.95
32735;BME280;19112;51.076;3.706;2023-04-02T12:45:27;102232.75;;;9.31;76.95
32735;BME280;19112;51.076;3.706;2023-04-02T12:48:04;102158.78;;;8.92;74.41
32735;BME280;19112;51.076;3.706;2023-04-02T12:50:38;102227.38;;;9.15;75.22
32735;BME280;19112;51.076;3.706;2023-04-02T12:53:35;102310.50;;;9.45;74.05
32735;BME280;19112;51.076;3.706;2023-04-02T12:56:21;102305.59;;;9.37;74.98
32735;BME280;19112;51.076;3.706;2023-04-02T12:58:58;102003.25;;;7.49;73.49
32735;BME280;19112;51.076;3.706;2023-04-02T13:01:55;102310.53;;;8.76;74.22
32735;BME280;19112;51.076;3.706;2023-04-02T13:04:27;102313.28;;;9.06;76.01
32735;BME280;19112;51.076;3.706;2023-04-02T13:06:59;102245.72;;;8.59;75.83
32735;BME280;19112;51.076;3.706;2023-04-02T13:09:51;102312.41;;;8.79;73.97
32735;BME280;19112;51.076;3.706;2023-04-02T13:12:37;102363.84;;;9.18;76.14
32735;BME280;19112;51.076;3.706;2023-04-02T13:15:30;102322.84;;;9.05;76.02
32735;BME280;19112;51.076;3.706;2023-04-02T13:18:21;102376.34;;;9.22;75.51
32735;BME280;19112;51.076;3.706;2023-04-02T13:21:23;102082.66;;;7.64;74.67
32735;BME280;19112;51.076;3.706;2023-04-02T13:23:52;101997.78;;;7.04;75.79
32735;BME280;19112;51.076;3.706;2023-04-02T13:26:35;102362.13;;;9.18;76.21
32735;BME280;19112;51.076;3.706;2023-04-02T13:31:59;101978.78;;;6.80;75.81
32735;BME280;19112;51.076;3.706;2023-04-02T13:34:37;102194.03;;;8.15;75.79
32735;BME280;19112;51.076;3.706;2023-04-02T13:37:12;102294.81;;;8.76;75.93
32735;BME280;19112;51.076;3.706;2023-04-02T13:39:41;102293.16;;;8.63;75.28
32735;BME280;19112;51.076;3.706;2023-04-02T13:42:13;102126.16;;;7.77;75.54
32735;BME280;19112;51.076;3.706;2023-04-02T13:44:50;102412.91;;;9.21;75.38
32735;BME280;19112;51.076;3.706;2023-04-02T13:47:16;102108.66;;;7.76;75.64
32735;BME280;19112;51.076;3.706;2023-04-02T13:49:50;102305.53;;;8.94;74.88
32735;BME280;19112;51.076;3.706;2023-04-02T13:52:38;102167.88;;;8.56;76.13
32735;BME280;19112;51.076;3.706;2023-04-02T13:55:46;102131.59;;;8.48;75.03
32735;BME280;19112;51.076;3.706;2023-04-02T13:58:50;102241.34;;;9.29;74.04
32735;BME280;19112;51.076;3.706;2023-04-02T14:01:21;102312.28;;;9.89;73.09
32735;BME280;19112;51.076;3.706;2023-04-02T14:04:09;102388.25;;;10.31;73.21
32735;BME280;19112;51.076;3.706;2023-04-02T14:10:06;102015.25;;;8.14;72.58
32735;BME280;19112;51.076;3.706;2023-04-02T14:16:58;102404.72;;;10.28;72.10
32735;BME280;19112;51.076;3.706;2023-04-02T14:20:18;102411.66;;;10.13;71.75
32735;BME280;19112;51.076;3.706;2023-04-02T14:32:27;102422.38;;;10.45;70.82
32735;BME280;19112;51.076;3.706;2023-04-02T14:35:26;102398.56;;;9.85;68.85
32735;BME280;19112;51.076;3.706;2023-04-02T14:41:06;102366.22;;;9.28;69.33
32735;BME280;19112;51.076;3.706;2023-04-02T14:43:55;102430.06;;;10.00;70.22
32735;BME280;19112;51.076;3.706;2023-04-02T14:46:27;102315.81;;;9.32;69.16
32735;BME280;19112;51.076;3.706;2023-04-02T14:49:33;102450.56;;;9.77;68.01
32735;BME280;19112;51.076;3.706;2023-04-02T14:52:08;102348.69;;;9.27;68.57
32735;BME280;19112;51.076;3.706;2023-04-02T14:54:52;102333.78;;;8.85;68.30
32735;BME280;19112;51.076;3.706;2023-04-02T14:57:26;102333.91;;;9.14;68.85
32735;BME280;19112;51.076;3.706;2023-04-02T15:05:47;102432.13;;;9.76;68.63
32735;BME280;19112;51.076;3.706;2023-04-02T15:08:30;102449.03;;;9.81;68.20
32735;BME280;19112;51.076;3.706;2023-04-02T15:11:06;102446.56;;;10.12;68.88
32735;BME280;19112;51.076;3.706;2023-04-02T15:16:19;102292.34;;;9.06;67.89
32735;BME280;19112;51.076;3.706;2023-04-02T15:18:51;102383.56;;;9.82;68.59
32735;BME280;19112;51.076;3.706;2023-04-02T15:35:34;102478.16;;;10.41;65.49
32735;BME280;19112;51.076;3.706;2023-04-02T15:38:24;102361.00;;;9.28;64.62
32735;BME280;19112;51.076;3.706;2023-04-02T15:41:31;102444.78;;;9.83;65.91
32735;BME280;19112;51.076;3.706;2023-04-02T15:44:15;102374.09;;;9.56;64.96
32735;BME280;19112;51.076;3.706;2023-04-02T15:59:14;102218.78;;;9.03;64.08
32735;BME280;19112;51.076;3.706;2023-04-02T16:10:39;102353.06;;;9.69;62.81
32735;BME280;19112;51.076;3.706;2023-04-02T16:13:33;102506.59;;;10.63;62.36
32735;BME280;19112;51.076;3.706;2023-04-02T16:16:33;102466.00;;;10.43;61.50
32735;BME280;19112;51.076;3.706;2023-04-02T16:21:49;102519.34;;;11.01;63.46
32735;BME280;19112;51.076;3.706;2023-04-02T16:24:19;102268.41;;;9.87;62.20
32735;BME280;19112;51.076;3.706;2023-04-02T16:33:27;102501.84;;;11.02;61.75
32735;BME280;19112;51.076;3.706;2023-04-02T16:39:02;102376.06;;;10.03;62.88
32735;BME280;19112;51.076;3.706;2023-04-02T16:42:03;102261.22;;;9.40;63.61
32735;BME280;19112;51.076;3.706;2023-04-02T16:56:53;102538.72;;;10.59;63.10
32735;BME280;19112;51.076;3.706;2023-04-02T16:59:57;102482.38;;;10.25;61.84
32735;BME280;19112;51.076;3.706;2023-04-02T17:05:32;102541.34;;;10.59;61.89
32735;BME280;19112;51.076;3.706;2023-04-02T17:08:15;102548.00;;;10.67;62.40
32735;BME280;19112;51.076;3.706;2023-04-02T17:11:06;102500.69;;;10.53;62.59
32735;BME280;19112;51.076;3.706;2023-04-02T17:13:41;102502.84;;;10.60;63.01
32735;BME280;19112;51.076;3.706;2023-04-02T17:16:23;102556.88;;;10.99;62.89
32735;BME280;19112;51.076;3.706;2023-04-02T17:18:55;102556.34;;;10.90;63.68
32735;BME280;19112;51.076;3.706;2023-04-02T17:21:35;102298.34;;;9.90;64.75
32735;BME280;19112;51.076;3.706;2023-04-02T17:24:37;102429.31;;;10.89;64.34
32735;BME280;19112;51.076;3.706;2023-04-02T17:27:31;102543.13;;;11.80;64.81
32735;BME280;19112;51.076;3.706;2023-04-02T17:30:47;102492.19;;;11.63;62.31
32735;BME280;19112;51.076;3.706;2023-04-02T17:33:16;102503.63;;;11.80;61.69
32735;BME280;19112;51.076;3.706;2023-04-02T17:36:23;102579.91;;;12.26;62.30
32735;BME280;19112;51.076;3.706;2023-04-02T17:42:32;102437.19;;;11.68;61.60
32735;BME280;19112;51.076;3.706;2023-04-02T17:45:50;102582.44;;;12.57;61.34
32735;BME280;19112;51.076;3.706;2023-04-02T17:54:08;102356.50;;;11.03;63.02
32735;BME280;19112;51.076;3.706;2023-04-02T18:20:30;102472.44;;;10.78;66.56
32735;BME280;19112;51.076;3.706;2023-04-02T18:23:49;102622.84;;;11.48;66.08
32735;BME280;19112;51.076;3.706;2023-04-02T18:30:26;102623.00;;;10.92;66.56
32735;BME280;19112;51.076;3.706;2023-04-02T18:45:35;102655.06;;;10.43;67.97
32735;BME280;19112;51.076;3.706;2023-04-02T18:48:43;102663.59;;;10.26;69.07
32735;BME280;19112;51.076;3.706;2023-04-02T18:51:48;102657.16;;;10.08;70.45
32735;BME280;19112;51.076;3.706;2023-04-02T18:57:39;102566.41;;;9.17;71.82
32735;BME280;19112;51.076;3.706;2023-04-02T19:00:49;102657.16;;;9.81;72.59